Terminal Aerodrome Forecast
Issued by NWS Jackson, MS

Home | Current Version | Previous Version | Text Only | Print | Product List | Glossary On
Versions: 1 2 3 4 5 6 7 8 9 10 11 12 13 14 15
000
FTUS44 KJAN 190900 AAA
TAFGWO
TAF AMD
KGWO 190908Z 1909/2006 00000KT 1/2SM FG VV002
     FM191200 VRB03KT 2SM BR SKC
     FM191300 09004KT 3SM BR SKC
     FM191500 12005KT P6SM SCT050=

USA.gov is the U.S. government's official web portal to all federal, state and local government web resources and services.